Time;durP1;ratioP1;P1;durP2;ratioP2;P2;SDS_P1;SDS_P2;PMS_P1;PMS_P2;Temp;Humidity;BMP_temperature;BMP_pressure;BME280_temperature;BME280_humidity;BME280_pressure;Samples;Min_cycle;Max_cycle;Signal;HPM_P1;HPM_P2
2023/09/11 00:01:39;;;;;;;4.57;3.97;;;27.90;49.20;;;;;;5086377;27;45530;-65
2023/09/11 00:04:08;;;;;;;3.83;3.40;;;27.90;49.20;;;;;;5086522;27;45226;-65
2023/09/11 00:06:34;;;;;;;3.53;3.22;;;27.90;49.20;;;;;;5086676;27;45264;-65
2023/09/11 00:09:02;;;;;;;3.83;3.50;;;27.90;49.90;;;;;;5086321;27;46376;-66
2023/09/11 00:11:29;;;;;;;3.92;3.53;;;27.90;49.20;;;;;;5086232;27;45526;-65
2023/09/11 00:13:57;;;;;;;3.83;3.30;;;27.80;49.10;;;;;;5086326;27;45390;-65
2023/09/11 00:16:24;;;;;;;4.80;3.63;;;27.80;49.20;;;;;;5086493;27;45324;-65
2023/09/11 00:18:51;;;;;;;3.53;3.22;;;27.80;49.20;;;;;;5086139;27;47304;-65
2023/09/11 00:21:17;;;;;;;3.50;3.20;;;27.80;49.20;;;;;;5085498;27;45315;-65
2023/09/11 00:23:44;;;;;;;3.90;3.55;;;27.70;49.20;;;;;;5086278;27;45382;-65
2023/09/11 00:26:11;;;;;;;3.97;3.38;;;27.70;49.20;;;;;;5086508;27;45319;-65
2023/09/11 00:28:38;;;;;;;3.72;3.42;;;27.70;49.20;;;;;;5085974;27;46422;-65
2023/09/11 00:31:06;;;;;;;4.05;3.60;;;27.70;49.20;;;;;;5086067;27;45265;-65
2023/09/11 00:33:33;;;;;;;4.43;3.35;;;27.70;49.20;;;;;;5086195;27;45304;-65
2023/09/11 00:36:00;;;;;;;4.18;3.45;;;27.60;49.20;;;;;;5086171;27;45382;-64
2023/09/11 00:38:26;;;;;;;3.50;2.90;;;27.60;49.20;;;;;;5085828;27;46404;-65
2023/09/11 00:40:53;;;;;;;3.30;3.00;;;27.60;49.20;;;;;;5085908;27;45241;-65
2023/09/11 00:43:20;;;;;;;3.47;3.17;;;27.60;49.20;;;;;;5085710;27;45272;-65
2023/09/11 00:45:50;;;;;;;3.70;3.03;;;27.60;49.30;;;;;;5086169;27;45310;-64
2023/09/11 00:48:18;;;;;;;5.22;3.58;;;27.50;49.30;;;;;;5085625;27;46662;-65
2023/09/11 00:50:46;;;;;;;3.75;3.42;;;27.50;49.30;;;;;;5085917;27;45361;-65
2023/09/11 00:53:13;;;;;;;4.05;3.65;;;27.50;49.30;;;;;;5086122;27;45344;-65
2023/09/11 00:55:40;;;;;;;3.83;3.30;;;27.50;49.30;;;;;;5085904;27;45454;-65
2023/09/11 00:58:07;;;;;;;3.40;3.10;;;27.50;49.30;;;;;;5085508;27;45209;-65
2023/09/11 01:00:34;;;;;;;4.25;3.10;;;27.50;50.00;;;;;;5085684;27;45264;-65
2023/09/11 01:03:00;;;;;;;3.50;3.20;;;27.50;49.40;;;;;;5085723;27;45344;-65
2023/09/11 01:05:29;;;;;;;4.10;3.13;;;27.50;49.30;;;;;;5086026;27;45343;-65
2023/09/11 01:07:56;;;;;;;3.58;3.28;;;27.50;49.40;;;;;;5085479;27;47308;-65
2023/09/11 01:10:22;;;;;;;3.60;3.30;;;27.40;49.30;;;;;;5085631;27;45219;-65
2023/09/11 01:12:49;;;;;;;4.22;3.30;;;27.40;49.30;;;;;;5085622;27;45329;-65
2023/09/11 01:15:16;;;;;;;4.38;3.25;;;27.40;49.30;;;;;;5086030;27;45486;-65
2023/09/11 01:17:45;;;;;;;4.43;3.15;;;27.40;49.30;;;;;;5085220;27;45414;-65
2023/09/11 01:20:22;;;;;;;3.80;3.50;;;27.40;50.00;;;;;;5085594;27;45360;-65
2023/09/11 01:23:08;;;;;;;3.63;3.33;;;27.30;49.30;;;;;;5085613;27;45315;-65
2023/09/11 01:25:52;;;;;;;3.78;3.20;;;27.30;49.30;;;;;;5085799;27;45334;-65
2023/09/11 01:28:36;;;;;;;3.55;3.25;;;27.30;49.30;;;;;;5085132;27;45297;-65
2023/09/11 01:31:04;;;;;;;3.65;3.35;;;27.30;49.30;;;;;;5085274;27;45279;-64
2023/09/11 01:33:32;;;;;;;3.38;3.05;;;27.20;49.30;;;;;;5088665;27;45366;-64
2023/09/11 01:35:59;;;;;;;4.10;3.10;;;27.20;49.30;;;;;;5089076;27;45436;-65
2023/09/11 01:38:25;;;;;;;4.30;3.70;;;27.20;50.00;;;;;;5088770;27;46757;-65
2023/09/11 01:40:53;;;;;;;3.60;3.30;;;27.20;49.40;;;;;;5089047;27;45392;-65
2023/09/11 01:43:20;;;;;;;3.70;3.40;;;27.20;49.40;;;;;;5088819;27;45315;-64
2023/09/11 01:45:47;;;;;;;5.53;3.65;;;27.20;50.00;;;;;;5089024;27;45412;-65
2023/09/11 01:48:15;;;;;;;3.75;3.45;;;27.10;49.40;;;;;;5088348;27;45312;-65
2023/09/11 01:50:42;;;;;;;5.00;3.40;;;27.10;49.40;;;;;;5088592;27;45238;-65
2023/09/11 01:53:09;;;;;;;4.43;3.80;;;27.10;49.40;;;;;;5088644;27;45314;-65
2023/09/11 01:55:35;;;;;;;3.97;3.58;;;27.10;49.40;;;;;;5088797;27;45383;-65
2023/09/11 01:58:02;;;;;;;4.00;3.58;;;27.10;50.00;;;;;;5088184;27;46388;-65
2023/09/11 02:00:29;;;;;;;3.78;3.47;;;27.10;49.40;;;;;;5088750;27;45415;-66
2023/09/11 02:02:56;;;;;;;3.35;3.05;;;27.00;49.40;;;;;;5088638;27;45380;-65
2023/09/11 02:05:24;;;;;;;6.03;3.33;;;27.00;49.40;;;;;;5088626;27;45218;-65
2023/09/11 02:07:51;;;;;;;4.47;3.33;;;27.00;49.40;;;;;;5088118;27;45292;-65
2023/09/11 02:10:18;;;;;;;4.00;3.50;;;27.00;49.40;;;;;;5088306;27;45398;-65
2023/09/11 02:12:45;;;;;;;3.78;3.40;;;27.00;50.00;;;;;;5088201;27;45316;-65
2023/09/11 02:15:12;;;;;;;3.50;3.20;;;27.00;49.40;;;;;;5088467;27;45322;-64
2023/09/11 02:17:38;;;;;;;3.65;3.35;;;27.00;49.40;;;;;;5087891;27;46417;-67
2023/09/11 02:20:07;;;;;;;3.83;3.45;;;26.90;49.30;;;;;;5088326;27;45402;-64
2023/09/11 02:22:35;;;;;;;3.33;3.10;;;26.90;49.30;;;;;;5088212;27;45446;-65
2023/09/11 02:25:02;;;;;;;3.60;3.30;;;26.90;49.30;;;;;;5088535;27;45493;-66
2023/09/11 02:27:28;;;;;;;3.70;3.35;;;26.90;49.30;;;;;;5087926;27;45249;-65
2023/09/11 02:29:55;;;;;;;3.58;3.28;;;26.90;49.30;;;;;;5087991;27;45262;-65
2023/09/11 02:32:22;;;;;;;3.30;3.00;;;26.90;49.40;;;;;;5088243;27;45352;-64
2023/09/11 02:34:49;;;;;;;3.25;3.00;;;26.80;49.30;;;;;;5088342;27;45380;-65
2023/09/11 02:37:16;;;;;;;4.55;3.28;;;26.90;49.30;;;;;;5087538;27;46312;-65
2023/09/11 02:39:44;;;;;;;3.60;3.30;;;26.80;49.20;;;;;;5087986;27;45371;-65
2023/09/11 02:42:11;;;;;;;3.70;2.88;;;26.80;49.30;;;;;;5087637;27;45332;-65
2023/09/11 02:44:38;;;;;;;3.97;3.38;;;26.80;49.20;;;;;;5087524;27;45491;-65
2023/09/11 02:47:05;;;;;;;4.22;3.58;;;26.80;49.20;;;;;;5087577;27;46684;-65
2023/09/11 02:49:32;;;;;;;4.32;3.33;;;26.80;49.80;;;;;;5087810;28;45373;-65
2023/09/11 02:51:59;;;;;;;3.83;3.10;;;26.80;49.30;;;;;;5087622;27;45330;-65
2023/09/11 02:54:26;;;;;;;3.67;3.20;;;26.70;49.20;;;;;;5088018;27;45424;-64
2023/09/11 02:56:54;;;;;;;3.67;3.20;;;26.70;49.20;;;;;;5087235;27;45467;-65
2023/09/11 02:59:21;;;;;;;3.60;3.30;;;26.70;49.30;;;;;;5087705;27;45315;-65
2023/09/11 03:01:47;;;;;;;3.65;3.35;;;26.70;49.30;;;;;;5087657;27;45349;-64
2023/09/11 03:04:14;;;;;;;3.80;3.42;;;26.70;49.30;;;;;;5087893;27;45288;-65
2023/09/11 03:06:41;;;;;;;4.43;3.35;;;26.70;49.30;;;;;;5087195;27;45594;-65
2023/09/11 03:09:08;;;;;;;3.58;3.28;;;26.60;49.20;;;;;;5087297;27;45403;-65
2023/09/11 03:11:35;;;;;;;3.38;3.08;;;26.60;49.20;;;;;;5087487;27;45411;-65
2023/09/11 03:14:03;;;;;;;3.47;3.10;;;26.60;49.20;;;;;;5087440;27;45376;-65
2023/09/11 03:16:30;;;;;;;4.85;3.25;;;26.60;49.20;;;;;;5087012;27;46627;-65
2023/09/11 03:18:57;;;;;;;3.50;3.20;;;26.60;49.90;;;;;;5087158;27;45335;-65
2023/09/11 03:21:23;;;;;;;3.40;3.10;;;26.60;49.30;;;;;;5084826;27;45420;-65
2023/09/11 03:23:50;;;;;;;3.95;3.63;;;26.60;49.30;;;;;;5087315;27;45273;-64
2023/09/11 03:26:17;;;;;;;3.70;3.40;;;26.60;49.30;;;;;;5087000;27;46272;-65
2023/09/11 03:28:46;;;;;;;3.35;3.05;;;26.60;49.30;;;;;;5087140;27;45284;-66
2023/09/11 03:31:16;;;;;;;3.85;3.40;;;26.60;49.30;;;;;;5087075;27;45257;-66
2023/09/11 03:33:43;;;;;;;4.97;3.40;;;26.50;49.30;;;;;;5087207;27;45277;-66
2023/09/11 03:36:10;;;;;;;5.07;2.90;;;26.50;49.20;;;;;;5086855;27;46742;-65
2023/09/11 03:38:37;;;;;;;3.33;3.00;;;26.50;49.30;;;;;;5086840;27;45304;-65
2023/09/11 03:41:03;;;;;;;3.47;3.17;;;26.50;49.30;;;;;;5086837;28;45315;-65
2023/09/11 03:43:30;;;;;;;5.18;3.33;;;26.50;49.40;;;;;;5086788;27;45390;-65
2023/09/11 03:45:57;;;;;;;3.70;3.10;;;26.50;49.30;;;;;;5086843;27;46372;-66
2023/09/11 03:48:25;;;;;;;3.42;3.13;;;26.50;49.30;;;;;;5086641;27;45271;-65
2023/09/11 03:50:52;;;;;;;3.65;3.35;;;26.40;49.30;;;;;;5086766;27;45334;-65
2023/09/11 03:53:20;;;;;;;3.17;2.88;;;26.40;49.30;;;;;;5086826;27;45623;-65
2023/09/11 03:55:47;;;;;;;4.53;4.07;;;26.40;49.30;;;;;;5085478;27;47293;-65
2023/09/11 03:58:14;;;;;;;3.45;3.15;;;26.40;49.40;;;;;;5086332;27;45343;-66
2023/09/11 04:00:40;;;;;;;3.47;3.25;;;26.40;49.30;;;;;;5086670;27;45265;-66
2023/09/11 04:03:07;;;;;;;3.67;3.15;;;26.40;49.40;;;;;;5086770;27;45499;-65
2023/09/11 04:05:36;;;;;;;3.38;3.10;;;26.40;49.40;;;;;;5086253;27;45404;-66
2023/09/11 04:08:03;;;;;;;3.50;3.20;;;26.40;49.40;;;;;;5086533;27;45429;-65
2023/09/11 04:10:30;;;;;;;3.97;3.35;;;26.30;49.40;;;;;;5086468;27;45302;-66
2023/09/11 04:12:57;;;;;;;2.95;2.65;;;26.30;49.30;;;;;;5086599;27;45382;-65
2023/09/11 04:15:23;;;;;;;3.33;3.03;;;26.30;49.30;;;;;;5086218;27;45272;-65
2023/09/11 04:17:54;;;;;;;3.38;3.10;;;26.30;49.40;;;;;;5086046;27;45573;-65
2023/09/11 04:20:21;;;;;;;4.28;3.58;;;26.30;49.40;;;;;;5086299;27;45334;-66
2023/09/11 04:22:49;;;;;;;3.72;3.42;;;26.30;49.30;;;;;;5086527;27;45408;-65
2023/09/11 04:25:16;;;;;;;4.28;3.50;;;26.30;49.40;;;;;;5086055;27;47254;-64
2023/09/11 04:27:43;;;;;;;3.50;3.20;;;26.20;49.40;;;;;;5086141;27;45398;-65
2023/09/11 04:30:11;;;;;;;3.53;3.20;;;26.20;49.40;;;;;;5086293;27;45264;-67
2023/09/11 04:32:37;;;;;;;3.40;3.10;;;26.20;49.30;;;;;;5086306;27;45469;-65
2023/09/11 04:35:05;;;;;;;3.47;3.17;;;26.20;49.40;;;;;;5085963;27;45591;-65
2023/09/11 04:37:32;;;;;;;3.90;3.50;;;26.20;49.40;;;;;;5085669;27;45394;-65
2023/09/11 04:40:00;;;;;;;3.58;3.20;;;26.20;49.40;;;;;;5086082;27;45375;-65
2023/09/11 04:42:26;;;;;;;3.63;3.20;;;26.10;49.40;;;;;;5085904;27;45411;-66
2023/09/11 04:44:58;;;;;;;3.47;3.17;;;26.10;49.30;;;;;;5086008;27;45426;-64
2023/09/11 04:47:25;;;;;;;2.90;2.70;;;26.10;49.40;;;;;;5085675;27;45277;-64
2023/09/11 04:49:52;;;;;;;3.28;2.80;;;26.10;49.50;;;;;;5086104;27;45313;-65
2023/09/11 04:52:19;;;;;;;3.53;3.20;;;26.10;49.40;;;;;;5086235;27;45536;-65
2023/09/11 04:54:46;;;;;;;3.47;3.17;;;26.10;49.50;;;;;;5085681;27;45366;-65
2023/09/11 04:57:14;;;;;;;3.17;2.88;;;26.10;49.50;;;;;;5085574;27;45536;-65
2023/09/11 04:59:42;;;;;;;3.75;3.45;;;26.00;50.00;;;;;;5085925;27;45272;-66
2023/09/11 05:02:09;;;;;;;3.42;3.13;;;26.00;49.40;;;;;;5086025;27;45466;-65
2023/09/11 05:04:35;;;;;;;3.40;3.10;;;26.00;49.30;;;;;;5085523;27;45555;-64
2023/09/11 05:07:02;;;;;;;3.70;3.30;;;26.00;49.40;;;;;;5085181;27;45485;-64
2023/09/11 05:09:31;;;;;;;3.10;2.85;;;26.00;49.30;;;;;;5089462;27;45238;-64
2023/09/11 05:11:58;;;;;;;3.42;3.10;;;26.00;49.40;;;;;;5089308;27;45318;-65
2023/09/11 05:14:26;;;;;;;3.88;3.50;;;26.00;49.40;;;;;;5089010;27;48468;-64
2023/09/11 05:16:52;;;;;;;3.28;2.97;;;26.00;49.50;;;;;;5089023;27;45399;-65
2023/09/11 05:19:19;;;;;;;3.40;3.00;;;26.00;49.60;;;;;;5089095;27;45341;-65
2023/09/11 05:21:46;;;;;;;3.40;3.10;;;25.90;49.40;;;;;;5089299;27;45177;-65
2023/09/11 05:24:13;;;;;;;4.07;3.30;;;25.90;49.50;;;;;;5088834;27;45407;-65
2023/09/11 05:26:40;;;;;;;3.40;3.10;;;25.90;49.50;;;;;;5088811;27;45413;-65
2023/09/11 05:29:07;;;;;;;3.85;3.45;;;25.90;49.50;;;;;;5089262;27;45377;-65
2023/09/11 05:31:35;;;;;;;4.05;2.80;;;25.90;49.50;;;;;;5089062;27;45339;-65
2023/09/11 05:34:02;;;;;;;3.10;2.90;;;25.90;49.50;;;;;;5088882;27;45329;-65
2023/09/11 05:36:29;;;;;;;3.53;3.20;;;25.90;49.40;;;;;;5088726;27;45387;-65
2023/09/11 05:38:56;;;;;;;3.72;3.38;;;25.90;49.50;;;;;;5088936;27;45381;-64
2023/09/11 05:41:24;;;;;;;3.40;3.20;;;25.90;49.50;;;;;;5088864;27;45341;-66
2023/09/11 05:43:51;;;;;;;3.00;2.80;;;25.90;49.50;;;;;;5088865;27;45273;-65
2023/09/11 05:46:18;;;;;;;3.17;2.85;;;25.80;50.00;;;;;;5088569;27;45388;-66
2023/09/11 05:48:46;;;;;;;3.40;3.10;;;25.80;49.40;;;;;;5089025;27;45500;-64
2023/09/11 05:51:13;;;;;;;3.50;3.20;;;25.80;49.40;;;;;;5088766;27;45418;-65
2023/09/11 05:53:40;;;;;;;3.58;3.28;;;25.80;49.40;;;;;;5088428;27;48335;-64
2023/09/11 05:56:07;;;;;;;3.30;3.00;;;25.80;49.40;;;;;;5088524;27;45314;-65
2023/09/11 05:58:34;;;;;;;4.03;3.00;;;25.80;49.40;;;;;;5088282;27;45261;-64
2023/09/11 06:01:01;;;;;;;3.42;3.15;;;25.80;49.30;;;;;;5088796;27;45529;-65
2023/09/11 06:03:27;;;;;;;3.33;3.03;;;25.80;49.40;;;;;;5088234;27;46362;-64
2023/09/11 06:05:56;;;;;;;3.72;3.38;;;25.80;49.30;;;;;;5088407;27;45387;-65
2023/09/11 06:08:23;;;;;;;3.53;3.15;;;25.80;49.30;;;;;;5088336;27;45310;-65
2023/09/11 06:10:49;;;;;;;3.42;3.13;;;25.80;49.30;;;;;;5088542;27;45262;-64
2023/09/11 06:13:16;;;;;;;3.38;3.08;;;25.80;49.30;;;;;;5088057;27;45514;-65
2023/09/11 06:15:43;;;;;;;3.55;3.08;;;25.80;49.30;;;;;;5088213;27;45390;-64
2023/09/11 06:18:10;;;;;;;3.13;2.83;;;25.80;49.30;;;;;;5087269;27;45367;-64
2023/09/11 06:20:37;;;;;;;3.50;2.80;;;25.70;49.20;;;;;;5088433;27;45310;-65
2023/09/11 06:23:05;;;;;;;3.70;3.33;;;25.80;49.40;;;;;;5087958;27;46825;-65
2023/09/11 06:25:32;;;;;;;6.07;3.45;;;25.70;49.30;;;;;;5087971;27;45419;-66
2023/09/11 06:27:59;;;;;;;3.42;3.08;;;25.80;49.40;;;;;;5088054;27;45353;-65
2023/09/11 06:30:25;;;;;;;3.50;3.20;;;25.80;49.40;;;;;;5088291;27;45242;-65
2023/09/11 06:32:52;;;;;;;3.55;3.20;;;25.80;49.40;;;;;;5087831;27;45319;-65
2023/09/11 06:35:19;;;;;;;3.72;3.15;;;25.80;49.40;;;;;;5088089;27;45399;-65
2023/09/11 06:37:46;;;;;;;3.92;2.97;;;25.80;49.40;;;;;;5087858;27;45399;-64
2023/09/11 06:40:15;;;;;;;3.22;2.88;;;25.80;49.40;;;;;;5088052;27;45382;-65
2023/09/11 06:42:42;;;;;;;3.38;3.00;;;25.80;49.30;;;;;;5087248;27;45461;-67
2023/09/11 06:45:10;;;;;;;3.83;3.20;;;25.80;49.30;;;;;;5087751;27;45349;-66
2023/09/11 06:47:37;;;;;;;3.55;3.17;;;25.80;49.30;;;;;;5087738;27;45359;-65
2023/09/11 06:50:04;;;;;;;3.42;3.13;;;25.80;49.30;;;;;;5087877;27;45423;-65
2023/09/11 06:52:37;;;;;;;3.58;3.28;;;25.80;49.30;;;;;;5087528;27;45284;-66
2023/09/11 06:55:06;;;;;;;3.90;3.50;;;25.80;49.40;;;;;;5087525;27;45358;-66
2023/09/11 06:57:34;;;;;;;4.45;3.72;;;25.80;49.70;;;;;;5087481;27;45138;-65
2023/09/11 07:00:01;;;;;;;3.78;3.42;;;25.80;49.60;;;;;;5087908;27;45287;-66
2023/09/11 07:02:27;;;;;;;5.28;3.70;;;25.80;49.60;;;;;;5087154;27;46739;-66
2023/09/11 07:04:54;;;;;;;6.18;3.30;;;25.80;49.50;;;;;;5087043;27;45415;-64
2023/09/11 07:07:21;;;;;;;4.13;3.30;;;25.80;49.50;;;;;;5087282;27;45331;-65
2023/09/11 07:09:50;;;;;;;5.00;3.40;;;25.80;49.40;;;;;;5087507;27;45360;-65
2023/09/11 07:12:21;;;;;;;3.55;3.17;;;25.80;49.40;;;;;;5087129;27;45450;-65
2023/09/11 07:14:49;;;;;;;8.90;3.42;;;25.90;49.40;;;;;;5087017;27;46036;-66
2023/09/11 07:17:16;;;;;;;3.67;3.20;;;25.90;50.00;;;;;;5087173;27;45283;-64
2023/09/11 07:19:43;;;;;;;6.20;3.95;;;25.90;49.40;;;;;;5087444;27;45557;-65
2023/09/11 07:22:09;;;;;;;6.20;3.60;;;25.90;49.40;;;;;;5086869;27;45491;-65
2023/09/11 07:24:38;;;;;;;8.10;3.83;;;25.90;49.40;;;;;;5086992;27;45345;-65
2023/09/11 07:27:05;;;;;;;5.30;3.75;;;25.90;49.30;;;;;;5087109;27;45260;-65
2023/09/11 07:29:32;;;;;;;10.07;4.55;;;25.90;49.30;;;;;;5087223;27;45384;-66
2023/09/11 07:32:00;;;;;;;5.28;3.60;;;25.90;49.30;;;;;;5086769;27;47307;-66
2023/09/11 07:34:27;;;;;;;13.38;4.75;;;25.90;49.30;;;;;;5086630;27;45217;-64
2023/09/11 07:36:54;;;;;;;5.80;4.53;;;26.00;49.40;;;;;;5086825;27;45331;-66
2023/09/11 07:39:21;;;;;;;8.38;4.43;;;26.00;49.40;;;;;;5086870;27;45414;-66
2023/09/11 07:41:48;;;;;;;11.40;4.28;;;26.00;49.40;;;;;;5086367;27;46387;-66
2023/09/11 07:44:15;;;;;;;9.07;4.20;;;26.00;49.40;;;;;;5086549;27;45320;-66
2023/09/11 07:46:42;;;;;;;8.32;4.13;;;26.00;49.40;;;;;;5086630;27;45318;-67
2023/09/11 07:49:10;;;;;;;6.45;3.33;;;26.00;49.40;;;;;;5086822;27;45442;-66
2023/09/11 07:51:37;;;;;;;5.55;3.78;;;26.00;49.40;;;;;;5086275;27;47282;-66
2023/09/11 07:54:04;;;;;;;9.93;4.28;;;26.00;49.40;;;;;;5086226;27;45375;-66
2023/09/11 07:56:33;;;;;;;7.65;3.90;;;26.00;49.30;;;;;;5086553;27;45308;-66
2023/09/11 07:59:01;;;;;;;6.78;3.85;;;26.10;49.40;;;;;;5086627;27;45424;-66
2023/09/11 08:01:28;;;;;;;7.05;3.63;;;26.10;49.40;;;;;;5086205;27;45415;-66
2023/09/11 08:03:56;;;;;;;5.97;3.92;;;26.10;49.40;;;;;;5086124;27;45421;-66
2023/09/11 08:06:24;;;;;;;6.03;3.60;;;26.10;49.30;;;;;;5086361;28;45323;-67
2023/09/11 08:08:51;;;;;;;6.53;4.00;;;26.20;49.30;;;;;;5086362;27;45396;-67
2023/09/11 08:11:18;;;;;;;4.63;3.85;;;26.20;49.30;;;;;;5086090;27;45339;-66
2023/09/11 08:13:46;;;;;;;6.03;3.78;;;26.20;49.30;;;;;;5085988;27;45439;-66
2023/09/11 08:16:13;;;;;;;9.20;3.60;;;26.20;49.30;;;;;;5086137;27;45293;-66
2023/09/11 08:18:40;;;;;;;4.15;3.35;;;26.20;49.30;;;;;;5086229;27;45333;-66
2023/09/11 08:21:07;;;;;;;5.72;3.55;;;26.20;49.30;;;;;;5085897;27;46402;-66
2023/09/11 08:23:35;;;;;;;7.88;4.15;;;26.30;49.40;;;;;;5085991;27;45348;-66
2023/09/11 08:26:02;;;;;;;3.75;3.40;;;26.30;49.30;;;;;;5086034;27;45387;-66
2023/09/11 08:28:29;;;;;;;7.97;3.67;;;26.30;49.20;;;;;;5085997;27;45390;-67
2023/09/11 08:30:56;;;;;;;6.68;3.90;;;26.40;49.20;;;;;;5085573;27;45509;-66
2023/09/11 08:33:24;;;;;;;4.97;3.55;;;26.40;49.20;;;;;;5085630;27;45427;-66
2023/09/11 08:35:50;;;;;;;5.05;3.50;;;26.40;49.10;;;;;;5085784;27;45382;-67
2023/09/11 08:38:17;;;;;;;3.40;3.10;;;26.40;49.10;;;;;;5085840;27;45321;-67
2023/09/11 08:40:46;;;;;;;4.88;3.78;;;26.50;49.10;;;;;;5084990;27;46378;-66
2023/09/11 08:43:13;;;;;;;5.35;3.72;;;26.50;49.10;;;;;;5085203;27;45338;-67
2023/09/11 08:45:40;;;;;;;7.53;3.72;;;26.50;49.00;;;;;;5086014;27;45335;-67
2023/09/11 08:48:09;;;;;;;5.18;3.75;;;26.50;49.10;;;;;;5085932;27;45363;-66
2023/09/11 08:50:36;;;;;;;4.57;3.30;;;26.50;49.10;;;;;;5085588;27;46494;-65
2023/09/11 08:53:03;;;;;;;3.88;3.47;;;26.50;49.10;;;;;;5085537;27;45452;-66
2023/09/11 08:55:31;;;;;;;5.38;4.00;;;26.60;49.10;;;;;;5085727;27;45367;-65
2023/09/11 08:58:01;;;;;;;5.47;3.42;;;26.60;49.20;;;;;;5085870;27;45359;-65
2023/09/11 09:00:28;;;;;;;6.57;3.63;;;26.60;49.20;;;;;;5085476;27;45382;-65
2023/09/11 09:02:55;;;;;;;6.75;3.63;;;26.70;49.70;;;;;;5085474;27;45351;-66
2023/09/11 09:05:21;;;;;;;6.50;3.97;;;26.70;49.30;;;;;;5085719;27;45383;-66
2023/09/11 09:07:48;;;;;;;4.30;3.47;;;26.70;49.30;;;;;;5085832;27;45516;-65
2023/09/11 09:10:15;;;;;;;5.65;3.55;;;26.80;49.30;;;;;;5085334;27;46384;-65
2023/09/11 09:12:43;;;;;;;4.68;3.72;;;26.80;49.30;;;;;;5085446;27;45312;-66
2023/09/11 09:15:12;;;;;;;5.78;3.58;;;26.80;49.10;;;;;;5085553;27;45406;-66
2023/09/11 09:17:39;;;;;;;4.70;3.75;;;26.90;49.10;;;;;;5085603;27;45362;-66
2023/09/11 09:20:06;;;;;;;3.97;3.58;;;26.90;49.20;;;;;;5085134;27;45358;-66
2023/09/11 09:22:33;;;;;;;7.97;3.85;;;26.90;49.30;;;;;;5085189;27;45394;-66
2023/09/11 09:25:00;;;;;;;5.22;3.90;;;27.00;49.30;;;;;;5085218;27;45494;-66
2023/09/11 09:27:28;;;;;;;4.50;3.78;;;27.00;49.30;;;;;;5085427;27;45312;-66
2023/09/11 09:29:55;;;;;;;4.75;3.80;;;27.00;49.30;;;;;;5084923;27;45461;-66
2023/09/11 09:32:23;;;;;;;5.65;3.58;;;27.10;49.30;;;;;;5084909;27;45322;-67
2023/09/11 09:34:52;;;;;;;4.22;3.70;;;27.10;49.30;;;;;;5085181;27;45324;-66
2023/09/11 09:37:20;;;;;;;5.63;4.32;;;27.10;49.30;;;;;;5085141;27;45384;-66
2023/09/11 09:39:48;;;;;;;5.75;3.78;;;27.20;49.30;;;;;;5084703;27;46582;-66
2023/09/11 09:42:15;;;;;;;3.95;3.65;;;27.20;49.30;;;;;;5084708;27;45335;-67
2023/09/11 09:44:42;;;;;;;4.78;3.22;;;27.20;49.30;;;;;;5084981;27;45423;-66
2023/09/11 09:47:10;;;;;;;4.10;3.70;;;27.30;49.30;;;;;;5085187;27;45307;-66
2023/09/11 09:49:48;;;;;;;4.43;3.72;;;27.30;49.30;;;;;;5084765;27;45336;-66
2023/09/11 09:52:16;;;;;;;6.72;3.50;;;27.30;49.30;;;;;;5084869;27;45413;-66
2023/09/11 09:54:45;;;;;;;3.90;3.60;;;27.40;50.00;;;;;;5087868;27;45360;-66
2023/09/11 09:57:12;;;;;;;7.15;3.92;;;27.40;49.30;;;;;;5088485;27;45263;-67
2023/09/11 09:59:39;;;;;;;5.90;3.85;;;27.40;49.30;;;;;;5088152;27;47052;-66
2023/09/11 10:02:08;;;;;;;5.32;4.18;;;27.50;49.40;;;;;;5088108;27;45363;-66
2023/09/11 10:04:34;;;;;;;3.78;3.40;;;27.50;49.30;;;;;;5088226;27;45261;-66
2023/09/11 10:07:03;;;;;;;4.82;3.33;;;27.50;49.30;;;;;;5088371;27;45364;-66
2023/09/11 10:09:29;;;;;;;3.92;3.53;;;27.60;49.30;;;;;;5088117;27;45558;-64
2023/09/11 10:11:56;;;;;;;4.45;3.38;;;27.60;49.80;;;;;;5087990;27;45432;-66
2023/09/11 10:14:23;;;;;;;7.05;3.88;;;27.70;49.20;;;;;;5088002;27;45370;-65
2023/09/11 10:16:50;;;;;;;6.13;3.33;;;27.70;49.70;;;;;;5088329;27;45341;-66
2023/09/11 10:19:17;;;;;;;4.18;3.35;;;27.80;49.10;;;;;;5087834;27;45272;-65
2023/09/11 10:21:44;;;;;;;4.90;4.07;;;27.80;49.00;;;;;;5088041;27;45268;-65
2023/09/11 10:24:12;;;;;;;4.40;3.38;;;27.80;49.00;;;;;;5088058;27;45351;-65
2023/09/11 10:26:44;;;;;;;4.47;3.67;;;27.90;49.00;;;;;;5088155;27;45423;-66
2023/09/11 10:29:11;;;;;;;4.78;3.78;;;27.90;48.90;;;;;;5087874;27;45358;-65
2023/09/11 10:31:43;;;;;;;4.60;3.85;;;28.00;48.80;;;;;;5087842;27;45294;-66
2023/09/11 10:34:10;;;;;;;3.92;3.40;;;28.00;48.80;;;;;;5087841;27;45272;-66
2023/09/11 10:36:38;;;;;;;5.82;4.43;;;28.10;48.70;;;;;;5087980;27;45342;-66
2023/09/11 10:39:06;;;;;;;3.53;3.17;;;28.10;48.60;;;;;;5087509;27;45426;-66
2023/09/11 10:41:34;;;;;;;3.92;3.45;;;28.20;48.60;;;;;;5087257;27;45605;-66
2023/09/11 10:44:01;;;;;;;6.05;3.75;;;28.20;48.60;;;;;;5087549;27;45376;-66
2023/09/11 10:46:34;;;;;;;3.92;3.53;;;28.30;48.60;;;;;;5087938;27;45432;-66
2023/09/11 10:49:01;;;;;;;5.80;3.78;;;28.40;48.60;;;;;;5087485;28;46593;-66
2023/09/11 10:51:28;;;;;;;6.00;3.78;;;28.40;48.50;;;;;;5087570;27;45408;-66
2023/09/11 10:53:55;;;;;;;6.07;3.55;;;28.50;48.50;;;;;;5087616;27;45521;-66
2023/09/11 10:56:22;;;;;;;3.85;3.42;;;28.50;48.50;;;;;;5087603;27;45402;-66
2023/09/11 10:58:52;;;;;;;3.92;3.28;;;28.60;48.40;;;;;;5087286;27;46394;-66
2023/09/11 11:01:19;;;;;;;4.38;3.55;;;28.70;48.30;;;;;;5087341;27;45332;-66
2023/09/11 11:03:46;;;;;;;4.47;3.60;;;28.70;48.10;;;;;;5086848;27;45323;-66
2023/09/11 11:06:13;;;;;;;4.75;3.50;;;28.80;48.10;;;;;;5087518;27;45269;-66
2023/09/11 11:08:40;;;;;;;3.88;3.40;;;28.90;48.10;;;;;;5086866;27;46346;-65
2023/09/11 11:11:18;;;;;;;3.88;3.40;;;29.00;47.90;;;;;;5087038;27;45381;-66
2023/09/11 11:14:14;;;;;;;6.28;3.63;;;29.00;47.80;;;;;;5087015;27;45211;-66
2023/09/11 11:16:53;;;;;;;4.95;3.30;;;29.10;47.70;;;;;;5087331;27;45234;-66
2023/09/11 11:19:25;;;;;;;6.07;3.72;;;29.20;47.70;;;;;;5086677;27;45312;-65
2023/09/11 11:21:52;;;;;;;4.00;3.50;;;29.30;47.60;;;;;;5087131;27;45249;-66
2023/09/11 11:24:19;;;;;;;3.45;3.15;;;29.30;47.50;;;;;;5086982;27;45375;-66
2023/09/11 11:26:45;;;;;;;4.00;3.60;;;29.40;47.50;;;;;;5087049;27;45629;-65
2023/09/11 11:29:14;;;;;;;4.55;3.58;;;29.40;47.40;;;;;;5086930;27;45475;-65
2023/09/11 11:31:40;;;;;;;6.28;4.10;;;29.50;47.30;;;;;;5086841;27;45393;-66
2023/09/11 11:34:07;;;;;;;6.68;3.80;;;29.50;47.20;;;;;;5086781;27;45345;-65
2023/09/11 11:36:34;;;;;;;4.22;3.38;;;29.60;47.20;;;;;;5086991;27;45295;-65
2023/09/11 11:39:01;;;;;;;4.30;3.90;;;29.60;47.10;;;;;;5086645;27;45407;-65
2023/09/11 11:41:29;;;;;;;3.55;3.13;;;29.70;47.10;;;;;;5086381;27;45427;-66
2023/09/11 11:43:56;;;;;;;4.20;3.53;;;29.80;47.00;;;;;;5086742;27;45344;-65
2023/09/11 11:46:28;;;;;;;3.70;3.40;;;29.90;47.00;;;;;;5086932;27;45315;-66
2023/09/11 11:48:55;;;;;;;3.63;3.33;;;29.90;46.80;;;;;;5086411;27;45465;-66
2023/09/11 11:51:28;;;;;;;4.93;3.67;;;30.00;47.00;;;;;;5086563;27;45371;-65
2023/09/11 11:53:55;;;;;;;5.03;3.70;;;30.00;46.90;;;;;;5086495;27;45238;-66
2023/09/11 11:56:22;;;;;;;3.78;3.38;;;30.10;46.90;;;;;;5087024;27;45264;-66
2023/09/11 11:58:49;;;;;;;4.07;3.67;;;30.10;46.80;;;;;;5086458;27;46514;-65
2023/09/11 12:01:16;;;;;;;5.38;3.30;;;30.20;46.80;;;;;;5086308;27;45318;-67
2023/09/11 12:03:49;;;;;;;4.75;3.30;;;30.30;46.90;;;;;;5086304;27;45446;-66
2023/09/11 12:06:15;;;;;;;3.92;3.35;;;30.30;46.70;;;;;;5086571;27;45469;-67
2023/09/11 12:08:42;;;;;;;5.20;3.90;;;30.40;46.60;;;;;;5086286;27;46618;-66
2023/09/11 12:11:09;;;;;;;3.92;3.47;;;30.50;46.40;;;;;;5086125;27;45433;-66
2023/09/11 12:13:36;;;;;;;4.20;3.78;;;30.60;46.30;;;;;;5086249;27;45450;-66
2023/09/11 12:16:03;;;;;;;5.13;3.83;;;30.60;46.10;;;;;;5085404;27;45577;-65
2023/09/11 12:18:30;;;;;;;4.25;3.40;;;30.70;46.10;;;;;;5085905;27;46833;-65
2023/09/11 12:20:59;;;;;;;4.05;3.60;;;30.70;46.00;;;;;;5086005;27;45354;-66
2023/09/11 12:23:26;;;;;;;4.32;3.42;;;30.80;45.80;;;;;;5086017;27;45370;-66
2023/09/11 12:25:53;;;;;;;4.25;3.47;;;30.90;45.80;;;;;;5086351;27;45193;-66
2023/09/11 12:28:20;;;;;;;4.38;3.97;;;31.00;45.80;;;;;;5086091;27;47531;-66
2023/09/11 12:30:46;;;;;;;4.78;3.40;;;31.00;46.30;;;;;;5086014;27;45203;-66
2023/09/11 12:33:13;;;;;;;4.38;3.80;;;31.10;45.60;;;;;;5086020;27;45458;-66
2023/09/11 12:35:40;;;;;;;3.90;3.50;;;31.10;45.60;;;;;;5086170;27;45414;-66
2023/09/11 12:38:10;;;;;;;4.07;3.70;;;31.20;45.40;;;;;;5085670;27;46379;-65
2023/09/11 12:40:37;;;;;;;4.30;3.40;;;31.30;45.40;;;;;;5085908;27;45277;-66
2023/09/11 12:43:05;;;;;;;4.63;3.55;;;31.30;45.10;;;;;;5085645;27;45333;-67
2023/09/11 12:45:33;;;;;;;3.90;3.50;;;31.30;45.10;;;;;;5086063;27;45343;-67
2023/09/11 12:48:00;;;;;;;4.22;3.83;;;31.40;45.00;;;;;;5085540;27;45461;-65